Spring Sky — 9V3060 — position and weather

sailwx.info

Track history (hours):
 
Tides and Currents Weather Stations Pressure Air Temp Water Temp Dewpoint Dewpoint Depression Visibility Wind Speed Wind Dir Waves Ship Positions

Spring Sky

Last reported at 2018-Feb-19 03:08 UTC. Time now 2018-Feb-23 04:58 UTC.
Position N 26°00' E 122°50'.

Length 199 m; draft 12 m.

Type: Cargo ship. MMSI: 565775000.

Date/timePositionNaut miles runAvg speedWind from/ knotsBaromVisibWave heightAir tempDewpointWater temp
2018-Feb-19 03:08N 26°00' E 122°50'3712.9
2018-Feb-19 00:18N 25°25' E 122°40'2012.9
2018-Feb-18 22:46N 25°06' E 122°34'313.6
2018-Feb-18 22:30N 25°02' E 122°33'713.5
2018-Feb-18 22:00N 24°56' E 122°31'713.4
2018-Feb-18 21:30N 24°49' E 122°28'613.3
2018-Feb-18 21:00N 24°43' E 122°25'713.7
2018-Feb-18 20:31N 24°37' E 122°23'713.8
2018-Feb-18 20:00N 24°30' E 122°20'713.2
2018-Feb-18 19:30N 24°24' E 122°18'712.7
2018-Feb-18 18:57N 24°18' E 122°15'613.0
2018-Feb-18 18:30N 24°12' E 122°13'713.1
2018-Feb-18 17:59N 24°05' E 122°11'9912.3
2018-Feb-18 09:54N 22°32' E 121°35'410.1
2018-Feb-18 09:30N 22°29' E 121°33'1511.9
2018-Feb-18 08:17N 22°16' E 121°24'312.1
2018-Feb-18 08:00N 22°14' E 121°22'611.4
2018-Feb-18 07:28N 22°08' E 121°19'511.1
2018-Feb-18 07:00N 22°04' E 121°16'  
Track history (hours):
 
Tides and Currents Weather Stations Pressure Air Temp Water Temp Dewpoint Dewpoint Depression Visibility Wind Speed Wind Dir Waves Ship Positions

Spring Sky

Last reported at 2018-Feb-19 03:08 UTC. Time now 2018-Feb-23 04:58 UTC.
Position N 26°00' E 122°50'.

Length 199 m; draft 12 m.

Type: Cargo ship. MMSI: 565775000.

Date/timePositionNaut miles runAvg speedWind from/ knotsBaromVisibWave heightAir tempDewpointWater temp
2018-Feb-19 03:08N 26°00' E 122°50'3712.9
2018-Feb-19 00:18N 25°25' E 122°40'2012.9
2018-Feb-18 22:46N 25°06' E 122°34'313.6
2018-Feb-18 22:30N 25°02' E 122°33'713.5
2018-Feb-18 22:00N 24°56' E 122°31'713.4
2018-Feb-18 21:30N 24°49' E 122°28'613.3
2018-Feb-18 21:00N 24°43' E 122°25'713.7
2018-Feb-18 20:31N 24°37' E 122°23'713.8
2018-Feb-18 20:00N 24°30' E 122°20'713.2
2018-Feb-18 19:30N 24°24' E 122°18'712.7
2018-Feb-18 18:57N 24°18' E 122°15'613.0
2018-Feb-18 18:30N 24°12' E 122°13'713.1
2018-Feb-18 17:59N 24°05' E 122°11'9912.3
2018-Feb-18 09:54N 22°32' E 121°35'410.1
2018-Feb-18 09:30N 22°29' E 121°33'1511.9
2018-Feb-18 08:17N 22°16' E 121°24'312.1
2018-Feb-18 08:00N 22°14' E 121°22'611.4
2018-Feb-18 07:28N 22°08' E 121°19'511.1
2018-Feb-18 07:00N 22°04' E 121°16'  

Dump ship's entire track history